Time;durP1;ratioP1;P1;durP2;ratioP2;P2;SDS_P1;SDS_P2;PMS_P1;PMS_P2;Temp;Humidity;BMP_temperature;BMP_pressure;BME280_temperature;BME280_humidity;BME280_pressure;Samples;Min_cycle;Max_cycle;Signal;HPM_P1;HPM_P2
2022/01/27 02:01:58;;;;;;;;;;;;;;;-1.85;100.00;101000.75;5228627;23;20440;-81
2022/01/27 02:04:23;;;;;;;;;;;;;;;-1.90;100.00;100999.81;4978445;28;20298;-80
2022/01/27 02:06:59;;;;;;;;;;;;;;;-1.96;100.00;100997.63;4980245;28;19917;-80
2022/01/27 02:20:06;;;;;;;;;;;;;;;-1.99;100.00;100990.13;4994360;28;19976;-78
2022/01/27 02:22:31;;;;;;;;;;;;;;;-1.91;100.00;101002.88;4995585;28;20012;-78
2022/01/27 02:24:57;;;;;;;;;;;;;;;-1.88;100.00;100997.56;4986171;28;20442;-78
2022/01/27 02:27:22;;;;;;;;;;;;;;;-1.91;100.00;100992.00;5014051;28;19972;-78
2022/01/27 02:29:47;;;;;;;;;;;;;;;-1.95;100.00;101008.19;4994963;28;19925;-78
2022/01/27 02:32:14;;;;;;;;;;;;;;;-1.92;100.00;101018.41;4981359;28;19917;-78
2022/01/27 02:34:39;;;;;;;;;;;;;;;-1.89;100.00;100997.91;4994645;28;19917;-78
2022/01/27 02:37:05;;;;;;;;;;;;;;;-1.90;100.00;101007.19;4977914;28;20385;-78
2022/01/27 02:39:30;;;;;;;;;;;;;;;-1.90;100.00;101005.25;4993829;28;19918;-78
2022/01/27 02:42:02;;;;;;;;;;;;;;;-1.88;100.00;101013.91;4993792;28;19921;-80
2022/01/27 02:44:34;;;;;;;;;;;;;;;-1.89;100.00;101012.28;4993957;28;19921;-80
2022/01/27 02:47:00;;;;;;;;;;;;;;;-1.90;100.00;100999.81;4976078;28;20009;-79
2022/01/27 02:49:25;;;;;;;;;;;;;;;-1.90;100.00;100999.81;4993624;28;20020;-80
2022/01/27 02:51:51;;;;;;;;;;;;;;;-1.91;100.00;100981.94;4994491;28;19918;-80
2022/01/27 02:54:17;;;;;;;;;;;;;;;-1.90;100.00;100993.59;5001565;28;19964;-81
2022/01/27 02:56:47;;;;;;;;;;;;;;;-1.95;100.00;100991.06;4992783;28;19960;-80
2022/01/27 02:59:15;;;;;;;;;;;;;;;-1.95;100.00;100996.50;4993535;28;19918;-80
2022/01/27 03:01:44;;;;;;;;;;;;;;;-1.97;100.00;100987.88;4992450;28;19929;-80
2022/01/27 03:04:10;;;;;;;;;;;;;;;-1.91;100.00;100997.44;4985149;28;20326;-80
2022/01/27 03:06:35;;;;;;;;;;;;;;;-1.89;100.00;100995.97;4985814;28;19971;-80
2022/01/27 03:09:00;;;;;;;;;;;;;;;-1.90;100.00;100999.03;4993692;28;19921;-80
2022/01/27 03:11:33;;;;;;;;;;;;;;;-1.90;100.00;100997.09;4992793;28;19918;-80
2022/01/27 03:13:59;;;;;;;;;;;;;;;-1.85;100.00;100995.31;4974718;28;19925;-80
2022/01/27 03:16:24;;;;;;;;;;;;;;;-1.83;100.00;100999.31;4981093;28;19921;-81
2022/01/27 03:18:50;;;;;;;;;;;;;;;-1.79;100.00;101004.88;4975814;28;19917;-78
2022/01/27 03:21:15;;;;;;;;;;;;;;;-1.80;100.00;101014.97;4992973;28;19922;-79
2022/01/27 03:23:41;;;;;;;;;;;;;;;-1.80;100.00;101011.44;4994030;28;20397;-78
2022/01/27 03:26:06;;;;;;;;;;;;;;;-1.84;100.00;101010.50;4993063;28;19933;-78
2022/01/27 03:28:32;;;;;;;;;;;;;;;-1.86;100.00;101021.72;4993624;28;19964;-78
2022/01/27 03:30:57;;;;;;;;;;;;;;;-1.89;100.00;101011.50;4993915;28;19924;-78
2022/01/27 03:33:23;;;;;;;;;;;;;;;-1.93;100.00;101010.56;4992230;28;19917;-79
2022/01/27 03:35:48;;;;;;;;;;;;;;;-1.90;100.00;101004.47;4992960;28;19945;-78
2022/01/27 03:38:14;;;;;;;;;;;;;;;-1.88;100.00;101019.34;4992953;28;19918;-78
2022/01/27 03:40:39;;;;;;;;;;;;;;;-1.92;100.00;101007.53;4992275;28;19925;-78
2022/01/27 03:43:06;;;;;;;;;;;;;;;-2.05;100.00;101000.41;4992170;28;20375;-78
2022/01/27 03:45:32;;;;;;;;;;;;;;;-2.09;100.00;101009.53;4992674;28;20000;-78
2022/01/27 03:47:58;;;;;;;;;;;;;;;-2.12;100.00;101002.84;4992692;28;20012;-78
2022/01/27 03:50:23;;;;;;;;;;;;;;;-2.19;100.00;100999.84;4992578;28;19921;-78
2022/01/27 03:52:48;;;;;;;;;;;;;;;-2.21;100.00;100988.50;4991999;28;19918;-78
2022/01/27 03:55:14;;;;;;;;;;;;;;;-2.22;100.00;100995.06;4992737;28;20420;-78
2022/01/27 03:57:39;;;;;;;;;;;;;;;-2.21;100.00;100993.94;4992196;28;19921;-78
2022/01/27 04:00:08;;;;;;;;;;;;;;;-2.22;100.00;100992.34;4992092;28;19971;-78
2022/01/27 04:02:49;;;;;;;;;;;;;;;-2.19;100.00;100997.13;4993084;28;20004;-78
2022/01/27 04:05:14;;;;;;;;;;;;;;;-2.10;100.00;101005.25;4991776;28;19963;-78
2022/01/27 04:07:42;;;;;;;;;;;;;;;-2.13;100.00;100995.81;4992365;28;19926;-78
2022/01/27 04:10:08;;;;;;;;;;;;;;;-2.10;100.00;101005.25;4993106;28;20314;-78
2022/01/27 04:12:33;;;;;;;;;;;;;;;-2.08;100.00;101003.78;4987066;28;19925;-78
2022/01/27 04:14:58;;;;;;;;;;;;;;;-2.06;100.00;100996.06;4991134;28;19960;-79
2022/01/27 04:17:24;;;;;;;;;;;;;;;-2.06;100.00;101006.19;4992263;28;19924;-80
2022/01/27 04:19:49;;;;;;;;;;;;;;;-2.04;100.00;100998.47;4992098;28;19913;-80
2022/01/27 04:22:14;;;;;;;;;;;;;;;-2.04;100.00;101002.00;4990627;28;19918;-80
2022/01/27 04:24:40;;;;;;;;;;;;;;;-2.07;100.00;100999.94;5002550;28;20457;-80
2022/01/27 04:27:15;;;;;;;;;;;;;;;-2.02;100.00;101002.44;4992867;28;20020;-80
2022/01/27 04:29:41;;;;;;;;;;;;;;;-2.02;100.00;101002.44;4991590;28;19922;-80
2022/01/27 04:32:08;;;;;;;;;;;;;;;-2.07;100.00;101013.53;4991746;28;20410;-80
2022/01/27 04:34:36;;;;;;;;;;;;;;;-2.06;100.00;101006.94;4991605;28;19918;-81
2022/01/27 04:37:02;;;;;;;;;;;;;;;-2.04;100.00;100996.56;4990883;28;19921;-80
2022/01/27 04:39:35;;;;;;;;;;;;;;;-2.04;100.00;100993.84;4991515;28;19918;-80
2022/01/27 04:42:32;;;;;;;;;;;;;;;-2.07;100.00;101002.66;4992278;28;20349;-80
2022/01/27 04:44:59;;;;;;;;;;;;;;;-2.05;100.00;100997.69;4990067;28;20378;-80
2022/01/27 04:47:33;;;;;;;;;;;;;;;-2.05;100.00;101003.13;4991161;28;20348;-80
2022/01/27 04:49:59;;;;;;;;;;;;;;;-2.09;100.00;101002.19;5000606;28;20012;-81
2022/01/27 04:52:27;;;;;;;;;;;;;;;-2.10;100.00;101003.28;4991553;28;20008;-81
2022/01/27 04:55:00;;;;;;;;;;;;;;;-2.11;100.00;100996.28;4991139;28;19925;-80
2022/01/27 04:57:28;;;;;;;;;;;;;;;-2.13;100.00;100995.81;4984914;28;20353;-81
2022/01/27 04:59:53;;;;;;;;;;;;;;;-2.19;100.00;100999.06;4991664;28;19932;-80
2022/01/27 05:02:36;;;;;;;;;;;;;;;-2.19;100.00;101005.28;4977671;28;20305;-80
2022/01/27 05:05:02;;;;;;;;;;;;;;;-2.18;100.00;100996.00;4991044;28;20012;-80
2022/01/27 05:07:27;;;;;;;;;;;;;;;-2.15;100.00;101000.78;4991194;28;20358;-80
2022/01/27 05:09:58;;;;;;;;;;;;;;;-2.15;100.00;101003.50;4991379;28;19932;-78
2022/01/27 05:14:53;;;;;;;;;;;;;;;-2.19;100.00;100991.69;4992162;28;19952;-78
2022/01/27 05:17:19;;;;;;;;;;;;;;;-2.19;100.00;100991.69;4989849;28;19977;-78
2022/01/27 05:19:47;;;;;;;;;;;;;;;-2.21;100.00;100991.22;4990032;28;19926;-78
2022/01/27 05:22:13;;;;;;;;;;;;;;;-2.19;100.00;100980.81;4991101;28;19957;-79
2022/01/27 05:24:38;;;;;;;;;;;;;;;-2.20;100.00;100984.66;4991976;28;19964;-78
2022/01/27 05:27:04;;;;;;;;;;;;;;;-2.20;100.00;100978.44;4990772;28;20376;-78
2022/01/27 05:29:29;;;;;;;;;;;;;;;-2.18;100.00;100976.97;4991357;28;19918;-79
2022/01/27 05:31:54;;;;;;;;;;;;;;;-2.17;100.00;100984.00;4991812;28;19965;-78
2022/01/27 05:34:20;;;;;;;;;;;;;;;-2.14;100.00;100980.63;4990262;28;19924;-81
2022/01/27 05:36:45;;;;;;;;;;;;;;;-2.19;100.00;100988.97;4991622;28;19964;-81
2022/01/27 05:39:10;;;;;;;;;;;;;;;-2.21;100.00;100987.69;4991411;28;20386;-80
2022/01/27 05:41:36;;;;;;;;;;;;;;;-2.23;100.00;100996.19;4990854;28;20504;-80
2022/01/27 05:44:01;;;;;;;;;;;;;;;-2.25;100.00;100984.84;4981061;28;19922;-81
2022/01/27 05:46:26;;;;;;;;;;;;;;;-2.30;100.00;100993.16;4994220;28;19918;-81
2022/01/27 05:48:52;;;;;;;;;;;;;;;-2.30;100.00;100995.88;4994730;28;19941;-78
2022/01/27 05:51:17;;;;;;;;;;;;;;;-2.40;100.00;100986.22;4988439;28;20457;-79
2022/01/27 05:53:43;;;;;;;;;;;;;;;-2.43;100.00;100977.91;4989574;28;19937;-79
2022/01/27 05:56:08;;;;;;;;;;;;;;;-2.40;100.00;100977.25;4990437;28;20016;-79
2022/01/27 05:58:34;;;;;;;;;;;;;;;-2.45;100.00;100966.56;4983368;28;19957;-78
2022/01/27 06:00:59;;;;;;;;;;;;;;;-2.52;100.00;100958.13;4982706;28;19961;-79
2022/01/27 06:03:24;;;;;;;;;;;;;;;-2.50;100.00;100964.81;4972932;28;20012;-78
2022/01/27 06:05:50;;;;;;;;;;;;;;;-2.54;100.00;100963.09;4987170;28;20307;-79
2022/01/27 06:08:15;;;;;;;;;;;;;;;-2.58;100.00;100967.56;4988602;28;19922;-80
2022/01/27 06:10:40;;;;;;;;;;;;;;;-2.59;100.00;100966.81;4985942;28;19918;-79
2022/01/27 06:13:06;;;;;;;;;;;;;;;-2.61;100.00;100962.81;4973363;28;19928;-79
2022/01/27 06:15:31;;;;;;;;;;;;;;;-2.60;100.00;100967.91;4994954;28;19999;-79
2022/01/27 06:17:57;;;;;;;;;;;;;;;-2.57;100.00;100961.03;5003421;28;19917;-79
2022/01/27 06:20:23;;;;;;;;;;;;;;;-2.58;100.00;100964.84;4977129;28;19922;-79
2022/01/27 06:22:48;;;;;;;;;;;;;;;-2.66;100.00;100954.81;4999332;28;19924;-78
2022/01/27 06:25:14;;;;;;;;;;;;;;;-2.66;100.00;100958.34;4990551;28;19917;-79
2022/01/27 06:27:39;;;;;;;;;;;;;;;-2.64;100.00;100958.84;4990042;28;19922;-78
2022/01/27 06:30:05;;;;;;;;;;;;;;;-2.66;100.00;100960.25;4976672;28;19919;-78
2022/01/27 06:32:31;;;;;;;;;;;;;;;-2.72;100.00;100956.16;4969312;28;20375;-79
2022/01/27 06:34:57;;;;;;;;;;;;;;;-2.71;100.00;100955.03;4990297;28;19925;-79
2022/01/27 06:37:22;;;;;;;;;;;;;;;-2.77;100.00;100961.75;4994626;28;20027;-79
2022/01/27 06:39:48;;;;;;;;;;;;;;;-2.81;100.00;100956.19;4974602;28;19917;-79
2022/01/27 06:42:13;;;;;;;;;;;;;;;-2.84;100.00;100954.13;4992731;28;20367;-79
2022/01/27 06:44:38;;;;;;;;;;;;;;;-2.80;100.00;100965.13;4994418;28;20017;-79
2022/01/27 06:47:05;;;;;;;;;;;;;;;-2.81;100.00;100972.47;4992240;28;20367;-79
2022/01/27 06:49:30;;;;;;;;;;;;;;;-2.84;100.00;100948.69;5000560;28;19928;-80
2022/01/27 06:51:56;;;;;;;;;;;;;;;-2.75;100.00;100964.94;5001508;28;19984;-80
2022/01/27 06:54:21;;;;;;;;;;;;;;;-2.74;100.00;100963.81;5011925;28;19917;-80
2022/01/27 06:56:46;;;;;;;;;;;;;;;-2.73;100.00;100955.34;4992558;28;19984;-80
2022/01/27 06:59:12;;;;;;;;;;;;;;;-2.67;100.00;100958.69;4976096;28;19939;-80
2022/01/27 07:01:39;;;;;;;;;;;;;;;-2.62;100.00;100961.19;4991740;28;19917;-79
2022/01/27 07:04:04;;;;;;;;;;;;;;;-2.61;100.00;100960.09;4990323;28;19924;-80
2022/01/27 07:06:30;;;;;;;;;;;;;;;-2.56;100.00;100954.47;4979161;28;19917;-78
2022/01/27 07:08:56;;;;;;;;;;;;;;;-2.46;100.00;100965.75;4995218;28;20428;-80
2022/01/27 07:11:21;;;;;;;;;;;;;;;-2.32;100.00;100960.09;4997669;28;19968;-80
2022/01/27 07:13:47;;;;;;;;;;;;;;;-2.21;100.00;100971.38;4991261;28;19928;-81
2022/01/27 07:16:12;;;;;;;;;;;;;;;-2.11;100.00;100971.81;4995694;28;19996;-80
2022/01/27 07:18:38;;;;;;;;;;;;;;;-2.03;100.00;100973.69;4993160;28;19909;-80
2022/01/27 07:21:03;;;;;;;;;;;;;;;-1.91;100.00;100981.94;4996982;28;20374;-80
2022/01/27 07:23:29;;;;;;;;;;;;;;;-1.84;100.00;100969.72;4992701;28;19921;-80
2022/01/27 07:25:54;;;;;;;;;;;;;;;-1.75;100.00;100978.63;4994568;28;20382;-80
2022/01/27 07:28:22;;;;;;;;;;;;;;;-1.67;100.00;100977.75;4991537;28;20008;-78
2022/01/27 07:30:47;;;;;;;;;;;;;;;-1.57;100.00;100969.16;4974054;28;20126;-78
2022/01/27 07:33:12;;;;;;;;;;;;;;;-1.47;100.00;100964.13;4993999;28;20394;-79
2022/01/27 07:35:38;;;;;;;;;;;;;;;-1.38;100.00;100968.72;4993792;28;19917;-79
2022/01/27 07:38:05;;;;;;;;;;;;;;;-1.34;100.00;100970.44;4991307;28;19922;-79
2022/01/27 07:40:30;;;;;;;;;;;;;;;-1.29;100.00;100959.31;4991050;28;19917;-79
2022/01/27 07:42:57;;;;;;;;;;;;;;;-1.26;100.00;100961.38;4998469;28;19921;-79
2022/01/27 07:45:23;;;;;;;;;;;;;;;-1.23;100.00;100963.44;4988493;28;19933;-79
2022/01/27 07:47:48;;;;;;;;;;;;;;;-1.16;100.00;100952.78;4991707;28;19917;-81
2022/01/27 07:50:13;;;;;;;;;;;;;;;-1.08;100.00;100943.72;4973545;28;20319;-81
2022/01/27 07:52:41;;;;;;;;;;;;;;;-0.92;100.00;100938.44;4985473;28;19924;-81
2022/01/27 07:55:07;;;;;;;;;;;;;;;-0.79;100.00;100933.78;4996097;28;19977;-82
2022/01/27 07:57:33;;;;;;;;;;;;;;;-0.71;100.00;100924.72;4990618;28;19985;-81
2022/01/27 07:59:58;;;;;;;;;;;;;;;-0.52;100.00;100927.66;4988228;28;19980;-81
2022/01/27 08:02:23;;;;;;;;;;;;;;;-0.40;100.00;100933.13;4992107;28;20004;-79
2022/01/27 08:04:49;;;;;;;;;;;;;;;-0.33;100.00;100941.53;4971995;28;19917;-82
2022/01/27 08:07:14;;;;;;;;;;;;;;;-0.26;100.00;100935.50;4993436;28;19970;-81
2022/01/27 08:09:39;;;;;;;;;;;;;;;-0.19;100.00;100936.53;4993652;28;19992;-82
2022/01/27 08:12:05;;;;;;;;;;;;;;;-0.18;100.00;100932.66;4988395;28;19918;-82
2022/01/27 08:14:31;;;;;;;;;;;;;;;-0.16;100.00;100929.59;4991575;28;19914;-82
2022/01/27 08:16:56;;;;;;;;;;;;;;;-0.10;100.00;100928.22;4990520;28;20068;-82
2022/01/27 08:19:21;;;;;;;;;;;;;;;-0.12;100.00;100934.00;4990107;28;19968;-82
2022/01/27 08:21:47;;;;;;;;;;;;;;;-0.12;100.00;100928.53;4974138;28;19936;-79
2022/01/27 08:24:14;;;;;;;;;;;;;;;-0.09;100.00;100925.16;4974125;28;20314;-80
2022/01/27 08:26:43;;;;;;;;;;;;;;;-0.05;100.00;100920.59;4987911;28;19989;-82
2022/01/27 08:29:16;;;;;;;;;;;;;;;-0.09;100.00;100916.97;4987124;28;19917;-82
2022/01/27 08:32:05;;;;;;;;;;;;;;;-0.05;100.00;100909.69;4991641;28;19917;-82
2022/01/27 08:34:34;;;;;;;;;;;;;;;-0.05;100.00;100912.41;4991509;28;19941;-77
2022/01/27 08:37:01;;;;;;;;;;;;;;;-0.07;100.00;100908.44;4990126;28;19918;-80
2022/01/27 08:39:26;;;;;;;;;;;;;;;-0.01;100.00;100902.41;4992316;28;19925;-80
2022/01/27 08:41:52;;;;;;;;;;;;;;;-0.07;100.00;100905.69;4997154;28;19924;-80
2022/01/27 08:44:17;;;;;;;;;;;;;;;0.03;100.00;100898.97;4990948;28;20049;-82
2022/01/27 08:46:43;;;;;;;;;;;;;;;0.09;100.00;100908.50;4990899;28;19929;-80
2022/01/27 08:49:09;;;;;;;;;;;;;;;0.14;100.00;100913.72;4990901;28;19948;-81
2022/01/27 08:51:36;;;;;;;;;;;;;;;0.13;100.00;100914.84;4989913;28;19918;-81
2022/01/27 08:54:02;;;;;;;;;;;;;;;0.12;100.00;100916.81;4983551;28;19925;-81
2022/01/27 08:56:28;;;;;;;;;;;;;;;0.11;100.00;100934.31;4995236;28;19925;-80
2022/01/27 08:58:56;;;;;;;;;;;;;;;0.13;100.00;100929.28;4979820;28;19926;-81
2022/01/27 09:01:24;;;;;;;;;;;;;;;0.06;100.00;100925.56;4991893;28;19921;-81
2022/01/27 09:03:50;;;;;;;;;;;;;;;-0.08;100.00;100926.72;4993093;28;19925;-78
2022/01/27 09:06:18;;;;;;;;;;;;;;;-0.17;100.00;100923.34;4970240;28;19918;-78
2022/01/27 09:08:43;;;;;;;;;;;;;;;-0.01;100.00;100926.97;4991170;28;20394;-79
2022/01/27 09:11:09;;;;;;;;;;;;;;;0.11;100.00;100915.22;4990552;28;19918;-78
2022/01/27 09:13:34;;;;;;;;;;;;;;;0.33;100.00;100919.34;4995225;28;19917;-78
2022/01/27 09:16:00;;;;;;;;;;;;;;;0.48;100.00;100921.34;5011890;28;19917;-78
2022/01/27 09:18:26;;;;;;;;;;;;;;;0.62;100.00;100913.53;4994246;28;19926;-78
2022/01/27 09:20:51;;;;;;;;;;;;;;;0.67;100.00;100910.56;4991807;28;19913;-78
2022/01/27 09:23:17;;;;;;;;;;;;;;;0.77;100.00;100910.03;4991609;28;19925;-81
2022/01/27 09:25:45;;;;;;;;;;;;;;;0.89;100.00;100907.22;4998108;28;19917;-80
2022/01/27 09:28:11;;;;;;;;;;;;;;;1.02;100.00;100896.22;5005760;28;19917;-80
2022/01/27 09:30:39;;;;;;;;;;;;;;;1.16;100.00;100891.13;5011481;28;19917;-80
2022/01/27 09:33:05;;;;;;;;;;;;;;;1.30;100.00;100902.41;4987807;28;20389;-81
2022/01/27 09:35:31;;;;;;;;;;;;;;;1.27;100.00;100900.38;4998478;28;20454;-81
2022/01/27 09:37:57;;;;;;;;;;;;;;;1.31;100.00;100887.59;4978282;28;20012;-79
2022/01/27 09:40:22;;;;;;;;;;;;;;;1.30;100.00;100894.19;4982737;28;20000;-78
2022/01/27 09:42:51;;;;;;;;;;;;;;;1.40;100.00;100893.69;4982773;28;19918;-78
2022/01/27 09:45:17;;;;;;;;;;;;;;;1.47;100.00;100882.09;4991369;28;19949;-78
2022/01/27 09:47:43;;;;;;;;;;;;;;;1.53;99.32;100873.28;4997193;28;19964;-78
2022/01/27 09:52:40;;;;;;;;;;;;;;;1.74;100.00;100868.28;5000157;28;20029;-78
2022/01/27 09:55:05;;;;;;;;;;;;;;;1.78;99.78;100858.22;5001342;28;19937;-78
2022/01/27 09:57:31;;;;;;;;;;;;;;;1.78;100.00;100852.75;4995073;28;20294;-78
2022/01/27 09:59:56;;;;;;;;;;;;;;;1.87;100.00;100858.00;4989762;28;19945;-81
2022/01/27 10:02:22;;;;;;;;;;;;;;;1.98;100.00;100850.84;4991310;28;20430;-81
2022/01/27 10:04:47;;;;;;;;;;;;;;;2.09;99.67;100846.38;4990848;28;19922;-80
2022/01/27 10:07:15;;;;;;;;;;;;;;;2.32;99.30;100843.69;4990977;28;19918;-81
2022/01/27 10:09:49;;;;;;;;;;;;;;;2.43;98.75;100836.47;5000960;28;19918;-80
2022/01/27 10:12:14;;;;;;;;;;;;;;;2.46;97.07;100832.22;4977718;28;19922;-80
2022/01/27 10:14:40;;;;;;;;;;;;;;;2.58;98.63;100830.13;4978060;28;20387;-81
2022/01/27 10:17:10;;;;;;;;;;;;;;;2.73;97.26;100831.16;5014221;28;19924;-78
2022/01/27 10:19:36;;;;;;;;;;;;;;;2.89;96.26;100822.81;5014400;28;20011;-80
2022/01/27 10:22:02;;;;;;;;;;;;;;;2.95;91.85;100813.13;5000249;28;20004;-81
2022/01/27 10:24:30;;;;;;;;;;;;;;;3.17;91.14;100812.28;4984141;28;19918;-80
2022/01/27 10:27:34;;;;;;;;;;;;;;;3.29;89.09;100792.91;5002263;28;19918;-80
2022/01/27 10:30:35;;;;;;;;;;;;;;;3.09;88.35;100796.91;5006103;28;19918;-81
2022/01/27 10:32:47;;;;;;;;;;;;;;;3.38;89.41;100787.94;5004102;28;19921;-80
2022/01/27 10:35:14;;;;;;;;;;;;;;;3.24;86.56;100774.81;4974682;28;19925;-78
2022/01/27 10:37:54;;;;;;;;;;;;;;;3.50;87.84;100770.47;4998873;28;19917;-80
2022/01/27 10:40:33;;;;;;;;;;;;;;;3.54;85.69;100777.59;5005080;28;19917;-80
2022/01/27 10:42:59;;;;;;;;;;;;;;;3.66;84.62;100779.31;5000585;28;19965;-80
2022/01/27 10:45:24;;;;;;;;;;;;;;;3.89;85.12;100777.25;4996353;28;19928;-80
2022/01/27 10:47:49;;;;;;;;;;;;;;;3.62;83.13;100759.25;4994541;28;19918;-80
2022/01/27 10:50:16;;;;;;;;;;;;;;;3.84;84.48;100757.59;4976451;28;20276;-81
2022/01/27 10:52:49;;;;;;;;;;;;;;;3.94;83.90;100756.91;4994018;28;19984;-80
2022/01/27 10:55:17;;;;;;;;;;;;;;;4.06;83.41;100749.22;4992567;28;19918;-81
2022/01/27 10:57:49;;;;;;;;;;;;;;;4.19;83.99;100741.50;4996165;28;19921;-81
2022/01/27 11:00:15;;;;;;;;;;;;;;;4.31;83.68;100733.00;4992083;28;20004;-81
2022/01/27 11:02:50;;;;;;;;;;;;;;;4.48;83.39;100735.13;4992097;28;19918;-81
2022/01/27 11:05:19;;;;;;;;;;;;;;;4.30;81.74;100736.91;4992392;28;19980;-81
2022/01/27 11:07:45;;;;;;;;;;;;;;;4.36;83.17;100729.91;4992220;28;20533;-80
2022/01/27 11:10:10;;;;;;;;;;;;;;;4.55;81.56;100720.66;4994118;28;19945;-80
2022/01/27 11:12:35;;;;;;;;;;;;;;;4.49;81.17;100709.22;4992322;28;20298;-81
2022/01/27 11:15:01;;;;;;;;;;;;;;;4.49;81.10;100706.47;4992446;28;19924;-80
2022/01/27 11:17:30;;;;;;;;;;;;;;;4.52;81.57;100702.97;4975572;28;20379;-80
2022/01/27 11:20:16;;;;;;;;;;;;;;;4.70;81.58;100694.84;4992964;28;20283;-81
2022/01/27 11:25:52;;;;;;;;;;;;;;;4.90;79.72;100692.63;4997830;28;19948;-81
2022/01/27 11:27:53;;;;;;;;;;;;;;;5.00;81.12;100680.94;4985366;28;19913;-81
2022/01/27 11:30:18;;;;;;;;;;;;;;;5.18;79.48;100681.03;4995104;28;19917;-81
2022/01/27 11:32:51;;;;;;;;;;;;;;;5.14;78.19;100672.75;4986521;28;19921;-81
2022/01/27 11:35:17;;;;;;;;;;;;;;;5.07;78.28;100675.47;4995067;28;20386;-78
2022/01/27 11:37:45;;;;;;;;;;;;;;;5.10;78.56;100674.69;5002083;28;19925;-79
2022/01/27 11:40:11;;;;;;;;;;;;;;;5.12;76.78;100655.88;4975608;28;19917;-78
2022/01/27 11:42:37;;;;;;;;;;;;;;;5.18;77.28;100656.28;4990996;28;20346;-78
2022/01/27 11:45:21;;;;;;;;;;;;;;;5.24;78.27;100641.78;4995454;28;19918;-78
2022/01/27 11:47:54;;;;;;;;;;;;;;;5.05;77.72;100645.63;4993303;28;19926;-79
2022/01/27 11:50:34;;;;;;;;;;;;;;;4.95;78.00;100634.56;4984381;28;19968;-78
2022/01/27 11:53:03;;;;;;;;;;;;;;;5.28;79.59;100631.56;4992273;28;19917;-79
2022/01/27 11:55:31;;;;;;;;;;;;;;;5.60;76.18;100632.47;4991051;28;20386;-81
2022/01/27 11:57:57;;;;;;;;;;;;;;;5.76;72.79;100634.09;5000161;28;19939;-81
2022/01/27 12:00:28;;;;;;;;;;;;;;;5.82;70.91;100630.56;5001579;28;19953;-81
2022/01/27 12:02:56;;;;;;;;;;;;;;;5.81;71.29;100620.72;4968818;28;19979;-82
2022/01/27 12:05:24;;;;;;;;;;;;;;;5.76;70.89;100628.56;4989427;28;19924;-81
2022/01/27 12:08:08;;;;;;;;;;;;;;;5.72;71.92;100623.06;4994989;28;20000;-81
2022/01/27 12:10:49;;;;;;;;;;;;;;;5.80;71.65;100634.88;4991743;28;19917;-78
2022/01/27 12:13:32;;;;;;;;;;;;;;;5.84;71.32;100621.91;4995840;28;19947;-81
2022/01/27 12:19:00;;;;;;;;;;;;;;;5.89;72.30;100618.81;4987615;28;19965;-81
2022/01/27 12:21:32;;;;;;;;;;;;;;;6.16;72.00;100609.00;4993198;28;19921;-81
2022/01/27 12:24:13;;;;;;;;;;;;;;;6.35;69.37;100586.53;5002286;28;19918;-81
2022/01/27 12:26:46;;;;;;;;;;;;;;;6.15;69.60;100598.38;4989376;28;20036;-81
2022/01/27 12:29:11;;;;;;;;;;;;;;;6.03;70.39;100588.50;4992529;28;20015;-81
2022/01/27 12:31:40;;;;;;;;;;;;;;;6.04;71.15;100590.88;5000037;28;19971;-80
2022/01/27 12:34:05;;;;;;;;;;;;;;;6.27;70.44;100581.47;4997611;28;19926;-80
2022/01/27 12:36:30;;;;;;;;;;;;;;;6.28;70.23;100586.56;4991757;28;19917;-81
2022/01/27 12:38:56;;;;;;;;;;;;;;;6.22;71.18;100574.38;4986399;28;20475;-80
2022/01/27 12:41:21;;;;;;;;;;;;;;;6.39;70.23;100578.31;4992064;28;19940;-82
2022/01/27 12:43:49;;;;;;;;;;;;;;;6.01;69.52;100572.41;4994401;28;19926;-81
2022/01/27 12:46:15;;;;;;;;;;;;;;;5.94;70.22;100564.16;4994766;28;20206;-80
2022/01/27 12:48:47;;;;;;;;;;;;;;;5.95;71.40;100567.66;4978662;28;19925;-78
2022/01/27 12:51:12;;;;;;;;;;;;;;;6.02;71.13;100559.44;4979683;28;19918;-81
2022/01/27 12:53:37;;;;;;;;;;;;;;;6.01;69.84;100557.84;4996270;28;19918;-81
2022/01/27 12:56:07;;;;;;;;;;;;;;;5.81;69.84;100553.88;4994216;28;19918;-81
2022/01/27 12:58:33;;;;;;;;;;;;;;;5.50;70.87;100556.19;4972984;28;19921;-80
2022/01/27 13:00:59;;;;;;;;;;;;;;;5.23;71.76;100551.38;4994137;28;20422;-80
2022/01/27 13:03:25;;;;;;;;;;;;;;;4.99;72.72;100550.13;4992566;28;19917;-80
2022/01/27 13:05:53;;;;;;;;;;;;;;;4.80;72.93;100542.19;4991412;28;20264;-80
2022/01/27 13:08:19;;;;;;;;;;;;;;;4.73;74.13;100529.22;4985528;28;20379;-80
2022/01/27 13:10:46;;;;;;;;;;;;;;;4.67;74.56;100528.00;4991331;28;19966;-78
2022/01/27 13:13:16;;;;;;;;;;;;;;;4.74;75.55;100524.50;4989645;28;19936;-78
2022/01/27 13:15:41;;;;;;;;;;;;;;;4.60;74.80;100515.03;4989782;28;19961;-77
2022/01/27 13:18:11;;;;;;;;;;;;;;;4.46;75.28;100517.69;4980677;28;20420;-77
2022/01/27 13:20:44;;;;;;;;;;;;;;;4.44;75.55;100511.81;4989810;28;19933;-77
2022/01/27 13:23:19;;;;;;;;;;;;;;;4.45;75.65;100512.59;4976587;28;19918;-77
2022/01/27 13:25:47;;;;;;;;;;;;;;;4.57;76.32;100509.53;4990442;28;19918;-77
2022/01/27 13:28:15;;;;;;;;;;;;;;;4.76;75.38;100505.66;4989170;28;19918;-77
2022/01/27 13:30:41;;;;;;;;;;;;;;;4.91;74.76;100507.28;4974677;28;19926;-77
2022/01/27 13:33:07;;;;;;;;;;;;;;;5.03;74.39;100498.69;4988111;28;19932;-77
2022/01/27 13:35:34;;;;;;;;;;;;;;;5.14;73.81;100488.50;4988960;28;19917;-77
2022/01/27 13:38:08;;;;;;;;;;;;;;;5.09;73.93;100492.44;4976401;28;20017;-78
2022/01/27 13:43:18;;;;;;;;;;;;;;;4.91;74.71;100479.81;4990703;28;19922;-77
2022/01/27 13:45:44;;;;;;;;;;;;;;;4.79;74.68;100480.94;4995857;28;19972;-78
2022/01/27 13:48:15;;;;;;;;;;;;;;;4.67;75.28;100482.06;4997381;28;20055;-77
2022/01/27 13:50:41;;;;;;;;;;;;;;;4.56;75.44;100480.47;4991982;28;19923;-77
2022/01/27 13:53:08;;;;;;;;;;;;;;;4.46;76.24;100465.50;4993735;28;19980;-77
2022/01/27 13:55:33;;;;;;;;;;;;;;;4.44;76.76;100467.84;4995425;28;19980;-77
2022/01/27 13:58:02;;;;;;;;;;;;;;;4.40;76.83;100458.81;4974159;28;20264;-77
2022/01/27 14:00:40;;;;;;;;;;;;;;;4.27;77.81;100445.78;4994190;28;19928;-77
2022/01/27 14:03:13;;;;;;;;;;;;;;;4.27;77.98;100451.28;4992404;28;20348;-77
2022/01/27 14:05:38;;;;;;;;;;;;;;;4.26;77.94;100457.94;4993852;28;20375;-78
2022/01/27 14:08:04;;;;;;;;;;;;;;;4.25;78.75;100451.66;4990950;28;19918;-77
2022/01/27 14:10:37;;;;;;;;;;;;;;;4.23;78.24;100454.78;4994095;28;20033;-77
2022/01/27 14:13:04;;;;;;;;;;;;;;;4.13;78.29;100441.78;4996175;28;20462;-77
2022/01/27 14:15:34;;;;;;;;;;;;;;;4.12;78.84;100444.94;4993650;28;19918;-77
2022/01/27 14:17:59;;;;;;;;;;;;;;;4.04;79.06;100443.31;4996012;28;19925;-77
2022/01/27 14:20:25;;;;;;;;;;;;;;;4.01;79.37;100438.56;4991723;28;19926;-78
2022/01/27 14:23:12;;;;;;;;;;;;;;;3.99;79.31;100433.47;4991569;28;20352;-78
2022/01/27 14:25:44;;;;;;;;;;;;;;;3.86;80.18;100439.66;4991732;28;20032;-78
2022/01/27 14:28:11;;;;;;;;;;;;;;;3.75;80.91;100443.13;4991409;28;20000;-78
2022/01/27 14:30:37;;;;;;;;;;;;;;;3.74;80.74;100444.28;4992977;28;19970;-77
2022/01/27 14:33:02;;;;;;;;;;;;;;;3.71;81.24;100431.34;4974899;28;20092;-78
2022/01/27 14:35:28;;;;;;;;;;;;;;;3.69;81.29;100439.13;4992686;28;20025;-78
2022/01/27 14:37:57;;;;;;;;;;;;;;;3.65;81.68;100438.31;4994641;28;19957;-78
2022/01/27 14:40:23;;;;;;;;;;;;;;;3.62;81.66;100433.59;4991747;28;19929;-78
2022/01/27 14:42:48;;;;;;;;;;;;;;;3.57;82.20;100433.94;4994117;28;19918;-78
2022/01/27 14:45:17;;;;;;;;;;;;;;;3.52;82.29;100428.06;4993760;28;19921;-78
2022/01/27 14:47:43;;;;;;;;;;;;;;;3.44;82.65;100432.66;4993335;28;20057;-78
2022/01/27 14:50:09;;;;;;;;;;;;;;;3.36;82.88;100444.72;4993284;28;20494;-78
2022/01/27 14:52:36;;;;;;;;;;;;;;;3.27;83.87;100433.31;4989219;28;19934;-77
2022/01/27 14:55:02;;;;;;;;;;;;;;;3.21;83.60;100432.88;4989998;28;19925;-77
2022/01/27 14:57:28;;;;;;;;;;;;;;;3.17;84.21;100439.47;4982727;28;19927;-77
2022/01/27 14:59:53;;;;;;;;;;;;;;;3.13;84.11;100427.69;5002947;28;19918;-78
2022/01/27 15:02:19;;;;;;;;;;;;;;;3.09;84.77;100437.81;4990970;28;19925;-79